Time;durP1;ratioP1;P1;durP2;ratioP2;P2;SDS_P1;SDS_P2;PMS_P1;PMS_P2;Temp;Humidity;BMP_temperature;BMP_pressure;BME280_temperature;BME280_humidity;BME280_pressure;Samples;Min_cycle;Max_cycle;Signal;HPM_P1;HPM_P2
2023/09/24 00:00:09;;;;;;;8.50;6.22;;;;;;;9.04;100.00;102311.56;5140643;28;20034;-71
2023/09/24 00:02:40;;;;;;;17.10;6.68;;;;;;;8.98;100.00;102313.84;5142072;28;20046;-72
2023/09/24 00:05:12;;;;;;;13.48;6.55;;;;;;;8.95;100.00;102317.63;5139590;28;20648;-71
2023/09/24 00:07:43;;;;;;;17.92;7.47;;;;;;;8.89;100.00;102317.25;5140793;28;20255;-71
2023/09/24 00:10:14;;;;;;;14.57;8.18;;;;;;;8.86;100.00;102322.84;5137009;28;20031;-71
2023/09/24 00:12:45;;;;;;;16.80;7.88;;;;;;;8.88;100.00;102326.25;5141431;28;20033;-71
2023/09/24 00:15:15;;;;;;;11.43;7.22;;;;;;;8.87;100.00;102327.22;5140926;28;20023;-71
2023/09/24 00:17:46;;;;;;;12.00;7.53;;;;;;;8.85;100.00;102327.34;5142823;28;20034;-71
2023/09/24 00:20:16;;;;;;;13.13;7.68;;;;;;;8.87;100.00;102325.38;5139010;28;20372;-71
2023/09/24 00:22:47;;;;;;;10.90;7.50;;;;;;;8.85;100.00;102327.34;5139057;28;20030;-71
2023/09/24 00:25:17;;;;;;;11.23;7.43;;;;;;;8.84;100.00;102328.31;5139667;28;20025;-71
2023/09/24 00:27:48;;;;;;;14.38;7.15;;;;;;;8.82;100.00;102327.56;5142142;28;20082;-72
2023/09/24 00:30:18;;;;;;;9.52;6.30;;;;;;;8.78;100.00;102326.94;5140689;28;20022;-71
2023/09/24 00:32:52;;;;;;;8.90;5.80;;;;;;;8.75;100.00;102331.69;5138988;28;20099;-71
2023/09/24 00:35:23;;;;;;;8.23;5.18;;;;;;;8.70;100.00;102328.53;5139440;28;20027;-71
2023/09/24 00:37:54;;;;;;;8.90;5.35;;;;;;;8.65;100.00;102323.53;5140667;28;20030;-70
2023/09/24 00:40:24;;;;;;;8.07;5.38;;;;;;;8.63;100.00;102330.81;5139101;28;20026;-71
2023/09/24 00:42:55;;;;;;;6.30;4.82;;;;;;;8.62;100.00;102326.44;5122367;28;20027;-70
2023/09/24 00:45:26;;;;;;;9.57;4.85;;;;;;;8.62;100.00;102325.56;5140162;28;20562;-70
2023/09/24 00:47:57;;;;;;;5.72;4.60;;;;;;;8.59;100.00;102320.47;5138291;28;20142;-71
2023/09/24 00:50:33;;;;;;;7.70;5.22;;;;;;;8.57;100.00;102321.44;5137256;28;20048;-71
2023/09/24 00:53:03;;;;;;;7.70;4.20;;;;;;;8.56;100.00;102325.06;5139721;28;20476;-70
2023/09/24 00:55:34;;;;;;;5.95;4.07;;;;;;;8.54;100.00;102324.34;5141838;28;20050;-70
2023/09/24 00:58:05;;;;;;;3.67;3.05;;;;;;;8.52;100.00;102331.63;5139993;28;20042;-70
2023/09/24 01:00:37;;;;;;;3.00;2.67;;;;;;;8.50;100.00;102328.22;5121728;28;20022;-71
2023/09/24 01:03:09;;;;;;;3.78;2.80;;;;;;;8.50;100.00;102324.69;5141011;28;20078;-71
2023/09/24 01:05:40;;;;;;;4.00;3.03;;;;;;;8.48;100.00;102330.19;5139308;28;20105;-70
2023/09/24 01:08:11;;;;;;;3.40;3.10;;;;;;;8.47;100.00;102335.63;5139575;28;20031;-70
2023/09/24 01:10:44;;;;;;;3.15;2.50;;;;;;;8.44;100.00;102331.38;5138641;28;20034;-71
2023/09/24 01:13:19;;;;;;;40.63;4.57;;;;;;;8.41;100.00;102333.41;5139561;28;20027;-71
2023/09/24 01:15:51;;;;;;;7.05;3.85;;;;;;;8.39;100.00;102332.69;5138864;28;20019;-70
2023/09/24 01:18:21;;;;;;;4.47;2.90;;;;;;;8.37;100.00;102326.59;5140112;28;20488;-70
2023/09/24 01:20:52;;;;;;;4.80;3.30;;;;;;;8.39;100.00;102325.53;5140353;28;20026;-70
2023/09/24 01:23:45;;;;;;;6.47;4.18;;;;;;;8.38;100.00;102334.50;5127958;28;20506;-70
2023/09/24 01:26:18;;;;;;;12.27;4.93;;;;;;;8.41;100.00;102336.94;5137533;28;20023;-70
2023/09/24 01:28:48;;;;;;;9.02;4.13;;;;;;;8.44;100.00;102338.53;5122732;28;20050;-70
2023/09/24 01:31:19;;;;;;;7.72;4.45;;;;;;;8.44;100.00;102338.53;5138542;28;20018;-70
2023/09/24 01:33:50;;;;;;;7.80;4.07;;;;;;;8.41;100.00;102339.63;5139799;28;20031;-70
2023/09/24 01:36:21;;;;;;;6.75;4.38;;;;;;;8.34;100.00;102338.34;5138700;28;20492;-70
2023/09/24 01:38:53;;;;;;;8.43;4.10;;;;;;;8.30;100.00;102337.72;5139147;28;20023;-70
2023/09/24 01:41:25;;;;;;;6.82;4.53;;;;;;;8.28;100.00;102339.66;5139968;28;20026;-71
2023/09/24 01:43:55;;;;;;;7.07;3.97;;;;;;;8.24;100.00;102337.34;5137975;28;20031;-70
2023/09/24 01:46:26;;;;;;;6.30;4.03;;;;;;;8.29;100.00;102337.84;5141535;28;20399;-71
2023/09/24 01:48:57;;;;;;;7.32;3.80;;;;;;;8.30;100.00;102339.53;5134310;28;20034;-70
2023/09/24 01:51:31;;;;;;;8.05;4.10;;;;;;;8.26;100.00;102328.22;5134848;28;20114;-70
2023/09/24 01:54:02;;;;;;;7.85;4.60;;;;;;;8.31;100.00;102339.41;5133975;28;20025;-70
2023/09/24 01:56:32;;;;;;;7.57;4.35;;;;;;;8.31;100.00;102334.06;5137761;28;20031;-70
2023/09/24 01:59:06;;;;;;;9.88;4.65;;;;;;;8.26;100.00;102340.75;5140298;28;20304;-71
2023/09/24 02:01:37;;;;;;;7.95;4.43;;;;;;;8.21;100.00;102335.72;5140047;28;20481;-71
2023/09/24 02:04:14;;;;;;;11.35;4.63;;;;;;;8.20;100.00;102330.50;5134526;28;20391;-70
2023/09/24 02:06:45;;;;;;;9.90;4.32;;;;;;;8.19;100.00;102343.03;5139757;28;20026;-71
2023/09/24 02:09:16;;;;;;;8.52;5.07;;;;;;;8.21;100.00;102334.88;5137029;28;20032;-71
2023/09/24 02:11:51;;;;;;;20.92;5.47;;;;;;;8.21;100.00;102341.09;5121059;28;20085;-71
2023/09/24 02:14:22;;;;;;;9.80;5.07;;;;;;;8.21;100.00;102338.41;5137765;28;20035;-71
2023/09/24 02:16:56;;;;;;;12.38;4.80;;;;;;;8.20;100.00;102336.72;5138921;28;20102;-71
2023/09/24 02:19:27;;;;;;;14.98;5.13;;;;;;;8.21;100.00;102341.09;5106682;28;20031;-71
2023/09/24 02:21:57;;;;;;;6.60;4.28;;;;;;;8.19;100.00;102336.84;5134275;28;20414;-71
2023/09/24 02:24:28;;;;;;;8.85;3.75;;;;;;;8.17;100.00;102342.28;5142479;28;20030;-71
2023/09/24 02:27:00;;;;;;;8.43;3.55;;;;;;;8.17;100.00;102336.06;5138171;28;20542;-71
2023/09/24 02:29:30;;;;;;;10.73;4.57;;;;;;;8.16;100.00;102340.56;5142579;28;20039;-71
2023/09/24 02:32:01;;;;;;;11.23;4.45;;;;;;;8.14;100.00;102347.88;5142282;28;20357;-71
2023/09/24 02:34:31;;;;;;;6.38;3.30;;;;;;;8.15;100.00;102348.72;5144248;28;20031;-71
2023/09/24 02:37:02;;;;;;;5.88;4.13;;;;;;;8.22;100.00;102347.28;5145518;28;20157;-71
2023/09/24 02:39:34;;;;;;;8.70;4.43;;;;;;;8.26;100.00;102349.59;5143274;28;20035;-70
2023/09/24 02:42:04;;;;;;;8.95;4.47;;;;;;;8.29;100.00;102344.03;5141977;28;20254;-70
2023/09/24 02:44:36;;;;;;;6.72;4.30;;;;;;;8.26;100.00;102354.97;5142815;28;20483;-70
2023/09/24 02:47:07;;;;;;;12.50;4.57;;;;;;;8.22;100.00;102349.94;5140811;28;20123;-70
2023/09/24 02:49:37;;;;;;;7.82;3.95;;;;;;;8.16;100.00;102348.59;5138546;28;20102;-70
2023/09/24 02:52:09;;;;;;;7.20;4.30;;;;;;;8.13;100.00;102345.28;5140311;28;20034;-70
2023/09/24 02:54:39;;;;;;;11.25;4.20;;;;;;;8.13;100.00;102348.81;5141337;28;20031;-70
2023/09/24 02:57:10;;;;;;;6.07;3.58;;;;;;;8.13;100.00;102350.63;5138114;28;20042;-71
2023/09/24 02:59:40;;;;;;;8.18;4.13;;;;;;;8.09;100.00;102344.69;5138967;28;20428;-71
2023/09/24 03:02:11;;;;;;;7.53;3.63;;;;;;;8.05;100.00;102346.72;5143192;28;20027;-71
2023/09/24 03:04:42;;;;;;;6.32;3.30;;;;;;;7.99;100.00;102354.34;5143025;28;20093;-70
2023/09/24 03:07:12;;;;;;;5.07;2.60;;;;;;;7.94;100.00;102353.81;5142863;28;20034;-70
2023/09/24 03:09:43;;;;;;;6.35;2.50;;;;;;;7.92;100.00;102350.41;5142099;28;20027;-71
2023/09/24 03:12:14;;;;;;;5.13;2.85;;;;;;;7.94;100.00;102352.00;5141489;28;20054;-70
2023/09/24 03:14:44;;;;;;;6.25;3.97;;;;;;;8.00;100.00;102359.56;5142136;28;20066;-71
2023/09/24 03:17:15;;;;;;;7.95;3.75;;;;;;;8.02;100.00;102364.78;5142125;28;20113;-70
2023/09/24 03:19:45;;;;;;;6.15;3.30;;;;;;;8.01;100.00;102363.09;5144023;28;20031;-71
2023/09/24 03:22:16;;;;;;;6.30;3.35;;;;;;;8.01;100.00;102369.28;5141320;28;21883;-71
2023/09/24 03:24:47;;;;;;;8.93;3.63;;;;;;;7.96;100.00;102371.44;5143992;28;20094;-71
2023/09/24 03:27:19;;;;;;;6.55;3.92;;;;;;;7.98;100.00;102371.31;5139441;28;20026;-70
2023/09/24 03:29:49;;;;;;;5.47;3.88;;;;;;;7.93;100.00;102379.69;5142490;28;20027;-71
2023/09/24 03:32:20;;;;;;;5.32;3.60;;;;;;;7.91;100.00;102381.63;5141259;28;20026;-71
2023/09/24 03:34:52;;;;;;;6.13;3.92;;;;;;;7.89;100.00;102378.22;5141024;28;20367;-71
2023/09/24 03:37:23;;;;;;;6.30;3.55;;;;;;;7.88;100.00;102378.31;5141599;28;20078;-71
2023/09/24 03:39:53;;;;;;;5.32;3.22;;;;;;;7.86;100.00;102370.41;5144782;28;20027;-71
2023/09/24 03:42:24;;;;;;;6.28;3.17;;;;;;;7.84;100.00;102382.19;5142559;28;20022;-71
2023/09/24 03:44:54;;;;;;;5.78;3.63;;;;;;;7.82;100.00;102376.94;5143849;28;20084;-70
2023/09/24 03:47:25;;;;;;;5.55;3.20;;;;;;;7.84;100.00;102384.84;5140409;28;20420;-71
2023/09/24 03:49:56;;;;;;;5.55;2.97;;;;;;;7.85;100.00;102387.41;5141519;28;20042;-71
2023/09/24 03:52:26;;;;;;;4.85;3.33;;;;;;;7.89;100.00;102385.38;5139874;28;20531;-71
2023/09/24 03:54:59;;;;;;;6.43;3.10;;;;;;;7.90;100.00;102381.72;5141734;28;20076;-71
2023/09/24 03:57:30;;;;;;;3.60;2.58;;;;;;;7.87;100.00;102388.13;5141562;28;20045;-70
2023/09/24 04:00:00;;;;;;;6.50;4.03;;;;;;;7.89;100.00;102380.03;5142454;28;20022;-71
2023/09/24 04:02:31;;;;;;;9.32;3.53;;;;;;;7.88;100.00;102379.19;5142513;28;20081;-71
2023/09/24 04:05:02;;;;;;;7.90;3.30;;;;;;;7.92;100.00;102375.28;5132135;28;20042;-71
2023/09/24 04:07:34;;;;;;;5.78;3.50;;;;;;;7.91;100.00;102384.28;5142050;28;20019;-71
2023/09/24 04:10:06;;;;;;;4.25;2.85;;;;;;;7.95;100.00;102385.78;5140621;28;20037;-70
2023/09/24 04:12:36;;;;;;;10.13;3.50;;;;;;;7.93;100.00;102387.72;5142200;28;20101;-70
2023/09/24 04:15:07;;;;;;;10.77;3.38;;;;;;;7.93;100.00;102387.72;5143795;28;20023;-70
2023/09/24 04:17:39;;;;;;;7.80;3.83;;;;;;;7.93;100.00;102387.72;5129354;28;20034;-70
2023/09/24 04:20:15;;;;;;;9.10;4.07;;;;;;;7.93;100.00;102392.19;5136009;28;20018;-70
2023/09/24 04:22:46;;;;;;;8.52;3.78;;;;;;;7.94;100.00;102391.25;5139220;28;20038;-69
2023/09/24 04:25:21;;;;;;;17.20;5.68;;;;;;;7.99;100.00;102391.75;5136671;28;20025;-71
2023/09/24 04:27:52;;;;;;;12.75;4.85;;;;;;;8.02;100.00;102386.16;5141856;28;20075;-70
2023/09/24 04:30:24;;;;;;;10.80;5.10;;;;;;;8.02;100.00;102392.38;5141028;28;20435;-70
2023/09/24 04:32:56;;;;;;;10.80;4.07;;;;;;;8.05;100.00;102391.31;5141228;28;20351;-70
2023/09/24 04:35:27;;;;;;;6.65;3.60;;;;;;;8.00;100.00;102396.13;5126741;28;20285;-70
2023/09/24 04:37:58;;;;;;;5.22;3.30;;;;;;;7.95;100.00;102391.13;5141243;28;20041;-69
2023/09/24 04:40:28;;;;;;;8.98;3.75;;;;;;;7.93;100.00;102387.72;5143983;28;20022;-70
2023/09/24 04:42:59;;;;;;;10.25;4.05;;;;;;;7.91;100.00;102388.78;5144325;28;20034;-70
2023/09/24 04:45:30;;;;;;;7.95;3.72;;;;;;;7.88;100.00;102389.00;5137167;28;20487;-71
2023/09/24 04:48:00;;;;;;;10.63;4.43;;;;;;;7.88;100.00;102389.88;5143551;28;20034;-70
2023/09/24 04:50:31;;;;;;;8.93;4.38;;;;;;;7.88;100.00;102379.19;5131928;28;20538;-70
2023/09/24 04:53:05;;;;;;;9.07;4.22;;;;;;;7.90;100.00;102384.41;5131536;28;20038;-70
2023/09/24 04:55:36;;;;;;;13.23;4.53;;;;;;;7.88;100.00;102384.53;5144188;28;20035;-70
2023/09/24 04:58:06;;;;;;;8.90;4.07;;;;;;;7.90;100.00;102392.41;5136933;28;20660;-70
2023/09/24 05:00:37;;;;;;;10.05;4.03;;;;;;;7.93;100.00;102381.50;5140611;28;20023;-70
2023/09/24 05:03:07;;;;;;;8.65;3.90;;;;;;;7.92;100.00;102388.66;5138898;28;20027;-71
2023/09/24 05:05:44;;;;;;;8.80;3.90;;;;;;;7.91;100.00;102389.63;5140585;28;20373;-71
2023/09/24 05:08:15;;;;;;;9.02;4.38;;;;;;;7.86;100.00;102396.28;5137801;28;20041;-71
2023/09/24 05:10:45;;;;;;;9.98;5.18;;;;;;;7.84;100.00;102393.72;5140552;28;20038;-71
2023/09/24 05:13:16;;;;;;;12.25;4.70;;;;;;;7.84;100.00;102403.56;5135798;28;20031;-70
2023/09/24 05:15:59;;;;;;;9.73;4.20;;;;;;;7.81;100.00;102404.63;5135645;28;20019;-70
2023/09/24 05:18:32;;;;;;;14.18;4.60;;;;;;;7.83;100.00;102416.06;5139838;28;20023;-71
2023/09/24 05:21:05;;;;;;;9.48;4.30;;;;;;;7.81;100.00;102409.97;5140039;28;20373;-70
2023/09/24 05:23:35;;;;;;;11.85;4.35;;;;;;;7.82;100.00;102409.00;5132851;28;20029;-70
2023/09/24 05:26:12;;;;;;;9.50;3.67;;;;;;;7.83;100.00;102412.50;5126747;28;20038;-71
2023/09/24 05:28:43;;;;;;;7.30;3.28;;;;;;;7.82;100.00;102421.50;5126175;28;20030;-70
2023/09/24 05:31:15;;;;;;;7.65;3.78;;;;;;;7.88;100.00;102416.59;5132813;28;20035;-71
2023/09/24 05:33:47;;;;;;;16.90;3.70;;;;;;;7.94;100.00;102424.16;5139940;28;20097;-71
2023/09/24 05:36:17;;;;;;;11.10;4.10;;;;;;;8.02;100.00;102421.75;5137841;28;20399;-70
2023/09/24 05:38:48;;;;;;;13.18;5.38;;;;;;;8.06;100.00;102430.44;5136246;28;20018;-70
2023/09/24 05:41:18;;;;;;;12.13;4.53;;;;;;;8.07;100.00;102433.94;5141691;28;20106;-70
2023/09/24 05:43:49;;;;;;;14.23;4.88;;;;;;;8.04;100.00;102438.56;5137531;28;20030;-70
2023/09/24 05:46:19;;;;;;;12.43;4.28;;;;;;;8.04;100.00;102443.91;5133855;28;20411;-70
2023/09/24 05:48:50;;;;;;;12.35;4.97;;;;;;;8.06;100.00;102441.13;5135897;28;20068;-70
2023/09/24 05:51:21;;;;;;;8.77;3.67;;;;;;;8.04;100.00;102443.91;5118149;28;20045;-70
2023/09/24 05:53:52;;;;;;;10.23;4.00;;;;;;;8.08;100.00;102446.34;5138559;28;20030;-70
2023/09/24 05:56:24;;;;;;;21.05;6.50;;;;;;;8.10;100.00;102452.44;5137827;28;20039;-70
2023/09/24 05:58:56;;;;;;;9.50;4.72;;;;;;;8.14;100.00;102456.63;5137887;28;20074;-71
2023/09/24 06:01:26;;;;;;;14.98;5.03;;;;;;;8.19;100.00;102451.78;5141315;28;20031;-71
2023/09/24 06:03:57;;;;;;;12.75;4.90;;;;;;;8.27;100.00;102454.72;5139057;28;20026;-70
2023/09/24 06:06:27;;;;;;;12.88;4.32;;;;;;;8.34;100.00;102450.66;5150761;28;20038;-71
2023/09/24 06:08:58;;;;;;;10.30;4.60;;;;;;;8.40;100.00;102447.56;5143765;28;20093;-71
2023/09/24 06:11:28;;;;;;;11.05;4.40;;;;;;;8.48;100.00;102452.34;5140618;28;20019;-71
2023/09/24 06:13:59;;;;;;;15.05;5.00;;;;;;;8.59;100.00;102452.41;5140481;28;20058;-71
2023/09/24 06:16:30;;;;;;;14.68;5.63;;;;;;;8.66;100.00;102456.31;5142256;28;20026;-71
2023/09/24 06:19:00;;;;;;;12.77;4.93;;;;;;;8.72;100.00;102452.34;5144116;28;20042;-71
2023/09/24 06:21:31;;;;;;;14.55;4.78;;;;;;;8.82;100.00;102451.53;5138640;28;20031;-71
2023/09/24 06:24:02;;;;;;;11.73;5.05;;;;;;;8.95;100.00;102461.31;5141382;28;20035;-71
2023/09/24 06:26:32;;;;;;;16.88;5.65;;;;;;;9.08;100.00;102449.53;5144419;28;20031;-71
2023/09/24 06:29:03;;;;;;;16.48;5.38;;;;;;;9.33;100.00;102458.34;5140315;28;20104;-71
2023/09/24 06:31:33;;;;;;;12.23;5.13;;;;;;;9.54;100.00;102456.72;5143422;28;20023;-71
2023/09/24 06:34:04;;;;;;;13.85;6.03;;;;;;;9.72;100.00;102454.38;5143079;28;20185;-71
2023/09/24 06:36:34;;;;;;;11.30;4.95;;;;;;;9.95;100.00;102462.44;5137667;28;20390;-71
2023/09/24 06:39:09;;;;;;;16.08;5.05;;;;;;;10.34;100.00;102458.38;5146310;28;20031;-71
2023/09/24 06:41:40;;;;;;;12.87;4.67;;;;;;;10.81;100.00;102467.03;5138572;28;20019;-71
2023/09/24 06:44:11;;;;;;;15.40;4.80;;;;;;;11.44;100.00;102469.72;5143751;28;20033;-71
2023/09/24 06:46:41;;;;;;;18.98;4.70;;;;;;;12.03;100.00;102467.22;5137643;28;20030;-72
2023/09/24 06:49:12;;;;;;;11.05;3.42;;;;;;;12.60;100.00;102471.03;5143825;28;20470;-71
2023/09/24 06:51:43;;;;;;;17.10;4.13;;;;;;;13.04;100.00;102465.22;5140404;28;20058;-71
2023/09/24 06:54:13;;;;;;;16.60;4.00;;;;;;;13.57;100.00;102470.13;5141208;28;20038;-71
2023/09/24 06:56:45;;;;;;;10.07;2.85;;;;;;;13.99;100.00;102457.03;5139978;28;20035;-71
2023/09/24 06:59:15;;;;;;;16.77;2.97;;;;;;;14.34;100.00;102456.25;5142840;28;20027;-71
2023/09/24 07:01:46;;;;;;;8.18;3.05;;;;;;;14.61;100.00;102459.94;5142633;28;20019;-71
2023/09/24 07:04:16;;;;;;;8.88;3.65;;;;;;;14.70;100.00;102454.47;5137140;28;20022;-71
2023/09/24 07:06:46;;;;;;;8.75;2.50;;;;;;;14.87;100.00;102468.16;5134504;28;20023;-71
2023/09/24 07:09:17;;;;;;;7.82;3.25;;;;;;;15.15;100.00;102468.88;5141847;28;20483;-72
2023/09/24 07:11:48;;;;;;;6.90;2.53;;;;;;;15.30;100.00;102453.78;5134459;28;20082;-72
2023/09/24 07:14:19;;;;;;;11.02;2.67;;;;;;;15.80;100.00;102464.75;5141048;28;20089;-71
2023/09/24 07:16:50;;;;;;;5.75;2.33;;;;;;;16.00;100.00;102464.53;5141436;28;20531;-72
2023/09/24 07:19:20;;;;;;;7.60;2.60;;;;;;;16.34;100.00;102477.19;5144676;28;20204;-73
2023/09/24 07:21:52;;;;;;;8.40;3.17;;;;;;;16.81;100.00;102469.31;5142823;28;20414;-72
2023/09/24 07:24:24;;;;;;;7.03;2.88;;;;;;;16.84;100.00;102477.13;5136741;28;20078;-72
2023/09/24 07:26:56;;;;;;;8.25;2.28;;;;;;;16.94;100.00;102483.25;5139673;28;20069;-73
2023/09/24 07:29:27;;;;;;;5.20;1.85;;;;;;;17.20;100.00;102490.38;5143238;28;20039;-72
2023/09/24 07:31:57;;;;;;;7.88;2.33;;;;;;;16.99;100.00;102482.75;5124904;28;20081;-72
2023/09/24 07:34:28;;;;;;;6.85;1.92;;;;;;;17.14;100.00;102489.19;5138497;28;20034;-71
2023/09/24 07:37:00;;;;;;;6.47;1.92;;;;;;;17.49;100.00;102484.41;5139467;28;20054;-71
2023/09/24 07:39:30;;;;;;;5.22;2.05;;;;;;;17.54;100.00;102479.31;5143340;28;20033;-70
2023/09/24 07:42:01;;;;;;;5.82;2.03;;;;;;;17.86;100.00;102481.09;5141662;28;20031;-72
2023/09/24 07:44:31;;;;;;;4.65;1.95;;;;;;;17.57;100.00;102490.66;5140601;28;20035;-71
2023/09/24 07:47:02;;;;;;;4.68;2.00;;;;;;;17.53;100.00;102483.88;5138627;28;20238;-70
2023/09/24 07:49:33;;;;;;;5.28;2.15;;;;;;;17.81;100.00;102488.94;5140310;28;20041;-71
2023/09/24 07:52:03;;;;;;;4.40;2.00;;;;;;;17.87;100.00;102485.50;5132927;28;20023;-70
2023/09/24 07:54:34;;;;;;;6.85;2.28;;;;;;;18.10;100.00;102491.88;5138065;28;20051;-71
2023/09/24 07:57:05;;;;;;;6.47;2.08;;;;;;;18.67;100.00;102490.72;5135658;28;20073;-71
2023/09/24 07:59:35;;;;;;;8.38;1.90;;;;;;;18.72;100.00;102490.22;5108001;28;20484;-70
2023/09/24 08:02:06;;;;;;;5.10;1.98;;;;;;;18.79;100.00;102497.50;5141548;28;20034;-70
2023/09/24 08:04:37;;;;;;;6.32;1.85;;;;;;;19.20;100.00;102490.88;5138017;28;20070;-71
2023/09/24 08:07:07;;;;;;;6.13;1.85;;;;;;;19.18;100.00;102499.25;5138256;28;20042;-70
2023/09/24 08:09:40;;;;;;;5.75;2.10;;;;;;;19.42;100.00;102493.53;5137502;28;20399;-71
2023/09/24 08:12:10;;;;;;;5.65;1.90;;;;;;;19.61;100.00;102494.09;5138604;28;20027;-71
2023/09/24 08:14:41;;;;;;;4.60;1.80;;;;;;;19.72;100.00;102487.31;5133458;28;20096;-71
2023/09/24 08:17:11;;;;;;;4.72;1.65;;;;;;;19.87;100.00;102489.00;5138342;28;20058;-72
2023/09/24 08:19:42;;;;;;;3.15;1.52;;;;;;;20.26;100.00;102485.13;5140466;28;20023;-71
2023/09/24 08:22:12;;;;;;;8.40;1.90;;;;;;;20.26;100.00;102492.47;5137277;28;20480;-71
2023/09/24 08:24:43;;;;;;;3.00;1.58;;;;;;;20.09;100.00;102489.13;5120919;28;20042;-71
2023/09/24 08:27:13;;;;;;;3.50;1.92;;;;;;;20.39;100.00;102479.00;5138187;28;20081;-72
2023/09/24 08:29:44;;;;;;;7.68;2.00;;;;;;;20.39;100.00;102492.66;5140799;28;20034;-71
2023/09/24 08:32:15;;;;;;;5.53;1.77;;;;;;;20.52;100.00;102492.81;5137900;28;20491;-71
2023/09/24 08:34:45;;;;;;;4.43;1.40;;;;;;;20.37;100.00;102501.00;5134875;28;20030;-71
2023/09/24 08:37:16;;;;;;;3.60;1.52;;;;;;;20.11;100.00;102492.50;5137445;28;20023;-72
2023/09/24 08:39:46;;;;;;;4.97;1.70;;;;;;;20.21;100.00;102493.03;5135084;28;20031;-71
2023/09/24 08:42:19;;;;;;;4.57;1.67;;;;;;;20.60;100.00;102497.31;5143248;28;20029;-71
2023/09/24 08:45:03;;;;;;;6.28;1.60;;;;;;;20.03;100.00;102498.91;5123336;28;20085;-72
2023/09/24 08:47:35;;;;;;;4.75;1.83;;;;;;;20.04;100.00;102494.28;5123776;28;21525;-71
2023/09/24 08:50:06;;;;;;;5.70;1.40;;;;;;;20.35;100.00;102500.34;5133320;28;20027;-72
2023/09/24 08:52:39;;;;;;;4.72;1.20;;;;;;;20.40;100.00;102500.63;5131489;28;20059;-71
2023/09/24 08:55:12;;;;;;;7.68;2.10;;;;;;;20.57;100.00;102494.97;5143026;28;20046;-70
2023/09/24 08:57:44;;;;;;;4.03;1.30;;;;;;;20.79;100.00;102502.13;5123158;28;20038;-71
2023/09/24 09:00:15;;;;;;;6.15;1.52;;;;;;;20.54;100.00;102496.22;5147360;28;20030;-71
2023/09/24 09:02:45;;;;;;;7.53;1.30;;;;;;;20.29;100.00;102492.09;5143024;28;20086;-71
2023/09/24 09:05:23;;;;;;;4.30;1.48;;;;;;;20.57;100.00;102500.41;5138301;28;20027;-71
2023/09/24 09:07:56;;;;;;;5.75;1.70;;;;;;;20.58;100.00;102492.06;5144810;28;20027;-71
2023/09/24 09:10:28;;;;;;;3.20;1.65;;;;;;;20.97;100.00;102492.66;5134428;28;20119;-71
2023/09/24 09:13:11;;;;;;;2.65;1.40;;;;;;;21.27;100.00;102486.00;5144163;28;20053;-71
2023/09/24 09:15:43;;;;;;;2.58;1.42;;;;;;;20.97;100.00;102496.22;5138962;28;20023;-71
2023/09/24 09:18:26;;;;;;;4.30;1.58;;;;;;;21.35;100.00;102485.03;5141981;28;20476;-71
2023/09/24 09:21:03;;;;;;;3.15;1.15;;;;;;;21.28;100.00;102470.44;5136272;28;20078;-71
2023/09/24 09:23:37;;;;;;;4.18;1.30;;;;;;;21.31;100.00;102478.28;5134851;28;20038;-70
2023/09/24 09:26:07;;;;;;;4.13;1.42;;;;;;;21.60;100.00;102469.91;5138273;28;20018;-72
2023/09/24 09:28:38;;;;;;;3.83;1.25;;;;;;;21.80;100.00;102461.81;5137885;28;20030;-72
2023/09/24 09:31:10;;;;;;;5.95;1.52;;;;;;;21.94;100.00;102460.00;5142744;28;20061;-71
2023/09/24 09:33:43;;;;;;;4.47;1.42;;;;;;;21.96;100.00;102449.72;5140453;28;20030;-71
2023/09/24 09:36:21;;;;;;;2.83;1.15;;;;;;;21.56;100.00;102440.44;5137519;28;20076;-72
2023/09/24 09:38:52;;;;;;;5.60;1.35;;;;;;;22.00;100.00;102448.25;5138512;28;20411;-71
2023/09/24 09:41:24;;;;;;;3.13;1.40;;;;;;;21.93;100.00;102448.22;5137443;28;20041;-72
2023/09/24 09:44:04;;;;;;;6.20;1.67;;;;;;;21.63;100.00;102447.63;5136177;28;20122;-72
2023/09/24 09:46:37;;;;;;;7.70;1.77;;;;;;;21.66;100.00;102454.59;5136159;28;20038;-72
2023/09/24 09:49:10;;;;;;;5.38;1.70;;;;;;;21.64;100.00;102454.81;5134568;28;20033;-72
2023/09/24 09:51:48;;;;;;;7.03;1.92;;;;;;;21.84;100.00;102441.25;5130571;28;20058;-71
2023/09/24 09:54:21;;;;;;;4.43;1.90;;;;;;;22.13;100.00;102447.50;5140040;28;20411;-72
2023/09/24 09:56:54;;;;;;;8.55;1.58;;;;;;;22.45;100.00;102444.03;5135717;28;20030;-71
2023/09/24 09:59:27;;;;;;;6.40;1.95;;;;;;;22.13;100.00;102439.28;5136211;28;20038;-72
2023/09/24 10:01:59;;;;;;;7.50;1.38;;;;;;;21.78;100.00;102439.31;5139675;28;20381;-72
2023/09/24 10:04:30;;;;;;;4.40;1.30;;;;;;;21.51;100.00;102442.94;5135999;28;20061;-72
2023/09/24 10:07:02;;;;;;;8.02;1.45;;;;;;;21.19;100.00;102434.28;5138910;28;20050;-72
2023/09/24 10:09:34;;;;;;;3.55;1.58;;;;;;;21.34;100.00;102434.22;5135224;28;20392;-72
2023/09/24 10:12:07;;;;;;;6.15;1.60;;;;;;;20.97;100.00;102441.66;5138617;28;20050;-72
2023/09/24 10:14:39;;;;;;;5.13;1.38;;;;;;;21.27;100.00;102438.75;5137647;28;20023;-72
2023/09/24 10:17:16;;;;;;;4.78;1.40;;;;;;;21.44;100.00;102423.78;5123883;28;20045;-72
2023/09/24 10:19:49;;;;;;;4.75;1.92;;;;;;;21.55;100.00;102427.84;5139060;28;20395;-72
2023/09/24 10:22:25;;;;;;;5.18;1.55;;;;;;;21.48;100.00;102411.41;5140594;28;20396;-73
2023/09/24 10:24:56;;;;;;;4.07;1.67;;;;;;;21.64;100.00;102413.00;5137966;28;20240;-72
2023/09/24 10:27:30;;;;;;;3.28;1.17;;;;;;;21.64;100.00;102419.28;5135850;28;20380;-72
2023/09/24 10:30:03;;;;;;;6.00;1.50;;;;;;;21.82;100.00;102413.28;5138415;28;20113;-72
2023/09/24 10:32:43;;;;;;;6.43;1.83;;;;;;;22.15;100.00;102412.63;5136103;28;20093;-72
2023/09/24 10:35:13;;;;;;;2.55;1.27;;;;;;;21.84;100.00;102407.59;5138802;28;20103;-72
2023/09/24 10:38:00;;;;;;;4.70;1.60;;;;;;;21.88;100.00;102404.25;5136513;28;20039;-71
2023/09/24 10:40:31;;;;;;;3.47;1.35;;;;;;;22.10;100.00;102412.34;5135479;28;20038;-72
2023/09/24 10:43:12;;;;;;;5.15;1.30;;;;;;;21.78;100.00;102414.72;5138069;28;20030;-73
2023/09/24 10:45:43;;;;;;;5.47;1.75;;;;;;;21.50;100.00;102408.50;5135019;28;20030;-72
2023/09/24 10:48:14;;;;;;;2.65;1.20;;;;;;;21.47;100.00;102412.47;5146603;28;20387;-72
2023/09/24 10:50:45;;;;;;;4.93;1.60;;;;;;;21.25;100.00;102400.75;5142639;28;20432;-72
2023/09/24 10:53:18;;;;;;;4.35;1.42;;;;;;;20.95;100.00;102411.84;5141663;28;20034;-72
2023/09/24 10:55:48;;;;;;;4.80;1.35;;;;;;;21.18;100.00;102403.41;5141396;28;20118;-73
2023/09/24 10:58:19;;;;;;;4.60;1.50;;;;;;;21.21;100.00;102413.09;5137124;28;20539;-72
2023/09/24 11:00:52;;;;;;;4.60;1.30;;;;;;;21.54;100.00;102396.13;5138943;28;20035;-72
2023/09/24 11:03:23;;;;;;;4.45;1.40;;;;;;;21.42;100.00;102402.13;5139569;28;20342;-72
2023/09/24 11:05:54;;;;;;;5.90;1.30;;;;;;;21.20;100.00;102395.88;5139025;28;20036;-72
2023/09/24 11:08:27;;;;;;;7.78;1.75;;;;;;;21.27;100.00;102401.38;5140993;28;20710;-72
2023/09/24 11:10:57;;;;;;;5.13;1.23;;;;;;;21.12;100.00;102406.94;5140946;28;20038;-72
2023/09/24 11:13:28;;;;;;;4.25;1.30;;;;;;;21.11;100.00;102405.25;5140410;28;20045;-72
2023/09/24 11:15:59;;;;;;;5.40;1.52;;;;;;;21.26;100.00;102393.41;5126411;28;20042;-72
2023/09/24 11:18:32;;;;;;;8.35;1.45;;;;;;;21.11;100.00;102391.63;5139098;28;20027;-73
2023/09/24 11:21:04;;;;;;;9.02;2.05;;;;;;;21.28;100.00;102392.13;5141050;28;20027;-72
2023/09/24 11:23:36;;;;;;;3.95;1.40;;;;;;;21.42;100.00;102380.28;5141865;28;20042;-73
2023/09/24 11:26:07;;;;;;;5.60;1.20;;;;;;;21.14;100.00;102387.66;5141661;28;20305;-71
2023/09/24 11:28:37;;;;;;;3.65;1.33;;;;;;;21.48;100.00;102386.00;5143691;28;20061;-73
2023/09/24 11:31:08;;;;;;;2.97;1.17;;;;;;;21.45;100.00;102393.56;5141518;28;20031;-72
2023/09/24 11:33:39;;;;;;;4.30;1.27;;;;;;;21.58;100.00;102389.19;5138455;28;20049;-72
2023/09/24 11:36:17;;;;;;;3.72;1.20;;;;;;;21.72;100.00;102391.78;5141724;28;20037;-72
2023/09/24 11:38:47;;;;;;;2.72;1.40;;;;;;;21.70;100.00;102393.06;5139590;28;20030;-72